Prunedale, CA

9:11 PM PDT on September 17, 2014 (GMT -0700)
Monterey Peninsula | Change Station
CLOSE
Current Station
Airport
Location: Monterey,
Elevation: 253 ft
Nearby Weather Stations

Elev 253 ft 36.59 °N, 121.84 °W | Updated 17 minutes ago

Clear
Clear
67 °F
Feels Like 67 °F
N
8
Wind Variable Wind from East

Today
High -- | Low -- °F
--% Chance of Precip.
Yesterday
High -- | Low -- °F
Precip. -- in
6:50 AM 7:10 PM
Waning Crescent, 30% visible
Pressure 29.84 in
Visibility 10.0 miles
Clouds Clear
Dew Point 57 °F
Humidity 70%
Rainfall 0.00 in
Snow Depth 1 in , 0 in , 0 in
UV 0 out of 12
Pollen 5.10 out of 12
Air Quality Not available.
Flu Activity Not available.
METAR KMRY 180354Z AUTO 09007KT 10SM CLR 19/14 A2981 RMK AO2 SLP104 T01940139 $

More Conditions Fewer Conditions

Pressure 29.84 in
Visibility 10.0 miles
Clouds Clear
Dew Point 57 °F
Humidity 70%
Rainfall 0.00 in
Snow Depth 1 in , 0 in , 0 in
UV 0 out of 12
Pollen 5.10 out of 12
Air Quality Not available.
Flu Activity Not available.
METAR KMRY 180354Z AUTO 09007KT 10SM CLR 19/14 A2981 RMK AO2 SLP104 T01940139 $

More Conditions Fewer Conditions

10-Day Weather Forecast

Almanac

Astronomy

Sep. 17, 2014 Rise Set
Actual Time 6:50 AM PDT 7:10 PM PDT
Civil Twilight 6:24 AM PDT 7:36 PM PDT
Nautical Twilight 5:54 AM PDT 8:07 PM PDT
Astronomical Twilight 5:23 AM PDT 8:38 PM PDT
Moon 1:01 AM PDT (9/17) 3:18 PM PDT (9/17)
Length of Visible Light 13h 12m
Length of Day
12h 20m
Tomorrow will be 2m 19s shorter.
Waning Crescent, 30% of the Moon is Illuminated
Sep 18
Waning Crescent
Sep 24
New
Oct 1
First Quarter
Oct 8
Full
Oct 15
Last Quarter

Today's Extremes

State Highs State Lows

Community

WunderPhotos

Upload Photos

1,754,290 photos uploaded!

Nearby

Snow Depth

Station Depth Elevation
Leavitt Meadows 1 in 7200 ft
Blue Lakes 0 in 8000 ft
Hagan's Meadow 0 in 8000 ft
Tahoe City Cross 0 in 6750 ft
Spratt Creek 0 in 6200 ft

Earthquake Activity

City Distance Mag. Time & Date
No recent earthquake activity has been reported nearby.
Minimum magnitude displayed is 2.5.

Coastal Water Temperatures

Place Temperature
Monterey, CA 62.1 °F
Redwood City, CA 73.0 °F

Nearby Weather Stations